Time;durP1;ratioP1;P1;durP2;ratioP2;P2;SDS_P1;SDS_P2;PMS_P1;PMS_P2;Temp;Humidity;BMP_temperature;BMP_pressure;BME280_temperature;BME280_humidity;BME280_pressure;Samples;Min_cycle;Max_cycle;Signal;HPM_P1;HPM_P2
2022/01/27 00:02:49;;;;;;;6.65;5.03;;;;;;;;;;4989375;28;20121;-37
2022/01/27 00:05:20;;;;;;;7.82;5.45;;;;;;;;;;4989101;28;20080;-38
2022/01/27 00:08:11;;;;;;;6.63;5.03;;;;;;;;;;4989413;28;20069;-36
2022/01/27 00:13:28;;;;;;;6.68;4.82;;;;;;;;;;4989032;28;20029;-36
2022/01/27 00:16:00;;;;;;;7.30;5.38;;;;;;;;;;4989013;28;20492;-35
2022/01/27 00:18:29;;;;;;;8.10;5.17;;;;;;;;;;4988888;28;20618;-38
2022/01/27 00:20:55;;;;;;;6.38;4.80;;;;;;;;;;4988853;28;20711;-36
2022/01/27 00:23:20;;;;;;;6.53;5.15;;;;;;;;;;4988220;28;20022;-35
2022/01/27 00:25:45;;;;;;;6.45;4.90;;;;;;;;;;4988491;28;20030;-35
2022/01/27 00:28:11;;;;;;;7.78;4.75;;;;;;;;;;4988589;28;20030;-33
2022/01/27 00:30:37;;;;;;;5.93;4.63;;;;;;;;;;4988626;28;20109;-30
2022/01/27 00:33:04;;;;;;;5.60;4.88;;;;;;;;;;5003382;28;20432;-36
2022/01/27 00:35:31;;;;;;;6.95;4.97;;;;;;;;;;4988388;28;20084;-33
2022/01/27 00:37:56;;;;;;;7.38;5.30;;;;;;;;;;5004170;28;20041;-37
2022/01/27 00:40:22;;;;;;;6.15;5.00;;;;;;;;;;5008256;28;20036;-29
2022/01/27 00:42:48;;;;;;;6.57;4.95;;;;;;;;;;5008037;28;20476;-33
2022/01/27 00:45:13;;;;;;;5.95;4.63;;;;;;;;;;5007642;28;20033;-35
2022/01/27 00:47:39;;;;;;;5.85;4.75;;;;;;;;;;5007219;28;20298;-33
2022/01/27 00:50:04;;;;;;;7.90;5.05;;;;;;;;;;5007801;28;20531;-30
2022/01/27 00:52:44;;;;;;;6.95;4.70;;;;;;;;;;5007378;28;20028;-33
2022/01/27 00:55:10;;;;;;;5.70;4.47;;;;;;;;;;5007463;28;20030;-36
2022/01/27 01:00:22;;;;;;;5.32;4.45;;;;;;;;;;5007592;28;20072;-37
2022/01/27 01:02:54;;;;;;;5.22;4.40;;;;;;;;;;5007448;28;20025;-33
2022/01/27 01:16:07;;;;;;;6.38;4.68;;;;;;;;;;5007497;28;20520;-35
2022/01/27 01:18:52;;;;;;;6.22;4.57;;;;;;;;;;5007166;28;20056;-34
2022/01/27 01:21:34;;;;;;;5.68;4.72;;;;;;;;;;5007155;28;20335;-34
2022/01/27 01:29:54;;;;;;;5.63;4.18;;;;;;;;;;5007404;28;20041;-33
2022/01/27 01:32:41;;;;;;;5.75;4.20;;;;;;;;;;5006609;28;20030;-36
2022/01/27 01:35:08;;;;;;;5.40;4.13;;;;;;;;;;4992777;28;20176;-33
2022/01/27 01:37:39;;;;;;;4.93;3.67;;;;;;;;;;4987254;28;20509;-37
2022/01/27 01:40:10;;;;;;;6.00;4.38;;;;;;;;;;4987383;28;20030;-36
2022/01/27 01:42:36;;;;;;;5.63;4.13;;;;;;;;;;4987103;28;20169;-36
2022/01/27 01:45:12;;;;;;;6.03;4.50;;;;;;;;;;4986943;28;20484;-31
2022/01/27 01:47:38;;;;;;;6.30;4.57;;;;;;;;;;4987440;28;20038;-33
2022/01/27 01:50:05;;;;;;;5.22;4.03;;;;;;;;;;4987069;28;20124;-35
2022/01/27 01:52:31;;;;;;;5.30;4.28;;;;;;;;;;4987402;28;20125;-30
2022/01/27 01:54:56;;;;;;;4.55;3.75;;;;;;;;;;4986891;28;20148;-34
2022/01/27 01:57:22;;;;;;;5.55;4.00;;;;;;;;;;4986745;28;20100;-33
2022/01/27 01:59:47;;;;;;;5.35;4.18;;;;;;;;;;4986325;28;20034;-32
2022/01/27 02:02:13;;;;;;;5.45;3.67;;;;;;;;;;4986989;28;20034;-30
2022/01/27 02:04:39;;;;;;;5.68;4.20;;;;;;;;;;4986577;28;20030;-36
2022/01/27 02:07:11;;;;;;;6.88;3.70;;;;;;;;;;4986656;28;20477;-33
2022/01/27 02:18:00;;;;;;;5.55;4.13;;;;;;;;;;4986935;28;20041;-33
2022/01/27 02:20:30;;;;;;;5.32;4.03;;;;;;;;;;4986165;28;20032;-38
2022/01/27 02:22:55;;;;;;;5.45;3.90;;;;;;;;;;4986440;28;20029;-33
2022/01/27 02:25:20;;;;;;;5.03;3.45;;;;;;;;;;4986129;28;20026;-37
2022/01/27 02:27:46;;;;;;;5.45;3.70;;;;;;;;;;4986608;28;20030;-37
2022/01/27 02:30:12;;;;;;;5.47;3.72;;;;;;;;;;4986736;28;20148;-36
2022/01/27 02:32:37;;;;;;;5.18;3.90;;;;;;;;;;4986060;28;20213;-37
2022/01/27 02:35:04;;;;;;;4.97;3.90;;;;;;;;;;4985929;28;20437;-35
2022/01/27 02:37:29;;;;;;;5.72;3.90;;;;;;;;;;4986402;28;20110;-33
2022/01/27 02:39:55;;;;;;;4.88;3.60;;;;;;;;;;4986289;28;20038;-34
2022/01/27 02:42:33;;;;;;;4.20;3.45;;;;;;;;;;4986185;28;20034;-31
2022/01/27 02:45:13;;;;;;;4.03;3.25;;;;;;;;;;4986037;28;20413;-31
2022/01/27 02:47:39;;;;;;;6.55;3.42;;;;;;;;;;4984783;28;20035;-36
2022/01/27 02:50:05;;;;;;;3.90;3.08;;;;;;;;;;4986148;28;20033;-32
2022/01/27 02:52:30;;;;;;;5.03;3.33;;;;;;;;;;4985984;28;20030;-32
2022/01/27 02:54:56;;;;;;;6.03;3.15;;;;;;;;;;4986010;28;20073;-32
2022/01/27 02:57:22;;;;;;;6.07;3.30;;;;;;;;;;4985817;28;20038;-34
2022/01/27 02:59:48;;;;;;;4.00;3.03;;;;;;;;;;4985901;28;20022;-37
2022/01/27 03:02:13;;;;;;;3.53;2.75;;;;;;;;;;4985446;28;20416;-38
2022/01/27 03:04:39;;;;;;;3.65;3.05;;;;;;;;;;4985629;28;20469;-34
2022/01/27 03:07:05;;;;;;;3.55;2.80;;;;;;;;;;4985221;28;20437;-38
2022/01/27 03:09:32;;;;;;;3.70;3.10;;;;;;;;;;4985508;28;20493;-30
2022/01/27 03:11:59;;;;;;;4.22;3.00;;;;;;;;;;4985359;28;20502;-33
2022/01/27 03:14:25;;;;;;;3.95;2.80;;;;;;;;;;4985356;28;20030;-39
2022/01/27 03:16:54;;;;;;;3.75;2.63;;;;;;;;;;5011442;28;20139;-37
2022/01/27 03:19:20;;;;;;;4.30;3.00;;;;;;;;;;5004882;28;20405;-34
2022/01/27 03:21:46;;;;;;;3.58;2.83;;;;;;;;;;5005111;28;20820;-37
2022/01/27 03:24:11;;;;;;;5.10;2.53;;;;;;;;;;5005207;28;20059;-33
2022/01/27 03:26:37;;;;;;;3.50;2.72;;;;;;;;;;5003386;28;20579;-35
2022/01/27 03:29:03;;;;;;;3.03;2.65;;;;;;;;;;5005029;28;20053;-35
2022/01/27 03:31:28;;;;;;;3.97;2.88;;;;;;;;;;5004686;28;20028;-31
2022/01/27 03:33:54;;;;;;;7.35;2.75;;;;;;;;;;5004987;28;20075;-31
2022/01/27 03:36:19;;;;;;;3.90;2.60;;;;;;;;;;4998336;28;20160;-33
2022/01/27 03:38:45;;;;;;;3.55;2.55;;;;;;;;;;4985623;28;20042;-34
2022/01/27 03:41:11;;;;;;;3.20;2.47;;;;;;;;;;4985356;28;20061;-35
2022/01/27 03:43:37;;;;;;;3.13;2.35;;;;;;;;;;4985618;28;20030;-36
2022/01/27 03:46:03;;;;;;;3.35;2.40;;;;;;;;;;4985416;28;20054;-34
2022/01/27 03:48:29;;;;;;;3.05;2.10;;;;;;;;;;4985548;28;20082;-35
2022/01/27 03:50:54;;;;;;;3.55;2.20;;;;;;;;;;4985718;28;20029;-36
2022/01/27 03:53:20;;;;;;;2.97;2.10;;;;;;;;;;4985508;28;20037;-33
2022/01/27 03:55:46;;;;;;;2.15;1.88;;;;;;;;;;4985467;28;20509;-38
2022/01/27 03:58:11;;;;;;;3.15;2.15;;;;;;;;;;4985234;28;20109;-36
2022/01/27 04:00:37;;;;;;;2.13;1.70;;;;;;;;;;4985623;28;20037;-35
2022/01/27 04:03:09;;;;;;;2.58;2.00;;;;;;;;;;4985546;28;20099;-34
2022/01/27 04:05:37;;;;;;;2.72;1.98;;;;;;;;;;4985340;28;20101;-32
2022/01/27 04:08:07;;;;;;;2.45;1.90;;;;;;;;;;4985133;28;20030;-32
2022/01/27 04:10:33;;;;;;;2.63;2.00;;;;;;;;;;4985033;28;20172;-34
2022/01/27 04:12:58;;;;;;;3.70;2.00;;;;;;;;;;4985048;28;20031;-34
2022/01/27 04:15:24;;;;;;;2.20;1.60;;;;;;;;;;4984927;28;20053;-31
2022/01/27 04:17:50;;;;;;;2.13;1.88;;;;;;;;;;4985112;28;20105;-33
2022/01/27 04:20:15;;;;;;;2.58;1.90;;;;;;;;;;4984913;28;20406;-32
2022/01/27 04:22:41;;;;;;;2.33;1.70;;;;;;;;;;4986273;28;20026;-32
2022/01/27 04:25:07;;;;;;;1.95;1.52;;;;;;;;;;4988667;28;20062;-33
2022/01/27 04:27:35;;;;;;;1.95;1.70;;;;;;;;;;4988975;28;20033;-32
2022/01/27 04:30:04;;;;;;;1.77;1.40;;;;;;;;;;4988746;28;20084;-30
2022/01/27 04:32:36;;;;;;;2.03;1.70;;;;;;;;;;4988723;28;20069;-34
2022/01/27 04:35:04;;;;;;;1.95;1.60;;;;;;;;;;4988414;28;20460;-30
2022/01/27 04:37:35;;;;;;;2.35;1.70;;;;;;;;;;4988514;28;20034;-37
2022/01/27 04:40:09;;;;;;;2.45;1.83;;;;;;;;;;4988538;28;20030;-32
2022/01/27 04:42:49;;;;;;;3.47;1.58;;;;;;;;;;4988363;28;20080;-30
2022/01/27 04:45:17;;;;;;;1.90;1.38;;;;;;;;;;4988480;28;20039;-33
2022/01/27 04:47:47;;;;;;;1.75;1.50;;;;;;;;;;4988365;28;20030;-36
2022/01/27 04:50:13;;;;;;;1.95;1.60;;;;;;;;;;4988365;28;20026;-33
2022/01/27 04:52:43;;;;;;;1.83;1.52;;;;;;;;;;4988276;28;20500;-38
2022/01/27 04:55:11;;;;;;;1.92;1.60;;;;;;;;;;4988144;28;20109;-39
2022/01/27 04:57:40;;;;;;;3.65;1.50;;;;;;;;;;4988330;28;20424;-33
2022/01/27 05:00:07;;;;;;;1.75;1.27;;;;;;;;;;4988158;28;20022;-34
2022/01/27 05:02:43;;;;;;;2.20;1.58;;;;;;;;;;4987993;28;20045;-36
2022/01/27 05:05:09;;;;;;;3.40;1.27;;;;;;;;;;4987698;28;20485;-35
2022/01/27 05:07:34;;;;;;;2.00;1.40;;;;;;;;;;4988169;28;20034;-34
2022/01/27 05:10:08;;;;;;;6.18;2.25;;;;;;;;;;4994478;28;20091;-30
2022/01/27 05:12:42;;;;;;;7.63;2.20;;;;;;;;;;5000829;28;20033;-30
2022/01/27 05:15:08;;;;;;;5.15;2.00;;;;;;;;;;5007308;28;20108;-29
2022/01/27 05:17:33;;;;;;;3.17;1.60;;;;;;;;;;5007058;28;20445;-33
2022/01/27 05:19:59;;;;;;;4.85;2.38;;;;;;;;;;5007101;28;20025;-34
2022/01/27 05:22:24;;;;;;;3.15;1.70;;;;;;;;;;5006975;28;20084;-37
2022/01/27 05:24:50;;;;;;;3.97;2.33;;;;;;;;;;5007066;28;20025;-39
2022/01/27 05:27:16;;;;;;;3.75;2.13;;;;;;;;;;4989053;28;20568;-35
2022/01/27 05:29:41;;;;;;;3.88;1.92;;;;;;;;;;4985945;28;20054;-32
2022/01/27 05:32:07;;;;;;;2.72;1.98;;;;;;;;;;4987403;28;20060;-37
2022/01/27 05:34:33;;;;;;;2.65;2.00;;;;;;;;;;4990049;28;20074;-34
2022/01/27 05:37:03;;;;;;;3.38;2.20;;;;;;;;;;4998995;28;20032;-32
2022/01/27 05:39:29;;;;;;;3.25;2.28;;;;;;;;;;4993776;28;20860;-33
2022/01/27 05:41:54;;;;;;;3.35;2.17;;;;;;;;;;4997730;28;20033;-35
2022/01/27 05:44:20;;;;;;;4.03;2.28;;;;;;;;;;5001582;28;20397;-36
2022/01/27 05:46:45;;;;;;;3.22;2.33;;;;;;;;;;5000573;28;20038;-35
2022/01/27 05:49:10;;;;;;;6.18;2.63;;;;;;;;;;5006501;28;20036;-33
2022/01/27 05:51:36;;;;;;;5.22;2.15;;;;;;;;;;5006661;28;20504;-38
2022/01/27 05:54:01;;;;;;;6.13;2.67;;;;;;;;;;5006572;28;20654;-32
2022/01/27 05:56:27;;;;;;;5.63;2.35;;;;;;;;;;4999372;28;20448;-37
2022/01/27 05:58:53;;;;;;;5.18;2.78;;;;;;;;;;4995903;28;20062;-37
2022/01/27 06:01:18;;;;;;;7.50;2.85;;;;;;;;;;4999926;28;20084;-30
2022/01/27 06:03:44;;;;;;;7.18;2.80;;;;;;;;;;5005979;28;20033;-32
2022/01/27 06:06:09;;;;;;;6.50;2.33;;;;;;;;;;4999922;28;20030;-39
2022/01/27 06:08:35;;;;;;;7.28;2.63;;;;;;;;;;4996014;28;20112;-34
2022/01/27 06:11:00;;;;;;;7.47;2.80;;;;;;;;;;5002717;28;20026;-35
2022/01/27 06:13:26;;;;;;;8.20;3.97;;;;;;;;;;4996996;28;20031;-33
2022/01/27 06:15:51;;;;;;;7.68;5.20;;;;;;;;;;4999659;28;20026;-34
2022/01/27 06:18:17;;;;;;;10.95;5.95;;;;;;;;;;5001084;28;20461;-39
2022/01/27 06:20:44;;;;;;;7.85;4.28;;;;;;;;;;4991409;28;20505;-37
2022/01/27 06:23:10;;;;;;;11.80;4.90;;;;;;;;;;4991327;28;20485;-32
2022/01/27 06:25:36;;;;;;;12.98;5.03;;;;;;;;;;4997039;28;20358;-36
2022/01/27 06:28:02;;;;;;;10.75;4.72;;;;;;;;;;4992817;28;20532;-35
2022/01/27 06:30:27;;;;;;;9.13;4.75;;;;;;;;;;4999626;28;20416;-38
2022/01/27 06:32:53;;;;;;;9.18;4.60;;;;;;;;;;4999198;28;20499;-36
2022/01/27 06:35:19;;;;;;;8.10;4.40;;;;;;;;;;4995093;28;20615;-32
2022/01/27 06:37:47;;;;;;;10.57;4.80;;;;;;;;;;4983371;28;20026;-40
2022/01/27 06:40:14;;;;;;;6.80;4.60;;;;;;;;;;4983667;28;20034;-37
2022/01/27 06:42:40;;;;;;;10.77;5.18;;;;;;;;;;4982605;28;20034;-34
2022/01/27 06:45:05;;;;;;;6.75;4.78;;;;;;;;;;4983206;28;20064;-35
2022/01/27 06:47:31;;;;;;;6.97;4.40;;;;;;;;;;5003128;28;20037;-36
2022/01/27 06:49:56;;;;;;;7.43;4.60;;;;;;;;;;5002953;28;20212;-33
2022/01/27 06:52:25;;;;;;;6.78;4.93;;;;;;;;;;5003251;28;20029;-37
2022/01/27 06:54:52;;;;;;;7.30;4.53;;;;;;;;;;5002682;28;20133;-39
2022/01/27 06:57:17;;;;;;;8.95;4.90;;;;;;;;;;5001174;28;20033;-34
2022/01/27 06:59:43;;;;;;;10.48;4.63;;;;;;;;;;4996580;28;20057;-32
2022/01/27 07:02:08;;;;;;;6.78;4.53;;;;;;;;;;4998669;28;20416;-30
2022/01/27 07:04:34;;;;;;;7.47;4.88;;;;;;;;;;5002310;28;20030;-34
2022/01/27 07:06:59;;;;;;;6.85;4.57;;;;;;;;;;5001965;28;20124;-32
2022/01/27 07:09:25;;;;;;;7.68;4.50;;;;;;;;;;5002903;28;20592;-32
2022/01/27 07:11:50;;;;;;;8.27;4.65;;;;;;;;;;5002730;28;20097;-36
2022/01/27 07:14:17;;;;;;;7.30;4.72;;;;;;;;;;5001249;28;20906;-29
2022/01/27 07:16:43;;;;;;;8.30;5.07;;;;;;;;;;5002327;28;20026;-32
2022/01/27 07:19:08;;;;;;;10.00;4.93;;;;;;;;;;5002096;28;20104;-36
2022/01/27 07:21:34;;;;;;;11.10;4.80;;;;;;;;;;5001633;28;20046;-34
2022/01/27 07:23:59;;;;;;;10.18;4.68;;;;;;;;;;5002650;28;20029;-30
2022/01/27 07:26:26;;;;;;;11.10;4.30;;;;;;;;;;4996651;28;20108;-31
2022/01/27 07:28:55;;;;;;;8.30;4.10;;;;;;;;;;5000533;28;20046;-39
2022/01/27 07:31:21;;;;;;;10.70;4.90;;;;;;;;;;5002286;28;20034;-32
2022/01/27 07:33:48;;;;;;;7.70;4.28;;;;;;;;;;4999101;28;20785;-36
2022/01/27 07:36:15;;;;;;;7.20;4.40;;;;;;;;;;4997079;28;20037;-33
2022/01/27 07:38:41;;;;;;;8.80;4.68;;;;;;;;;;5001929;28;20113;-36
2022/01/27 07:41:06;;;;;;;9.48;5.07;;;;;;;;;;5000947;28;20029;-38
2022/01/27 07:43:32;;;;;;;9.95;4.68;;;;;;;;;;5001955;28;20037;-35
2022/01/27 07:45:59;;;;;;;8.20;4.20;;;;;;;;;;5001601;28;20050;-36
2022/01/27 07:48:25;;;;;;;7.60;4.65;;;;;;;;;;5001799;28;20494;-36
2022/01/27 07:50:51;;;;;;;6.68;4.20;;;;;;;;;;5002311;28;20109;-30
2022/01/27 07:53:16;;;;;;;6.68;4.45;;;;;;;;;;4993925;28;20796;-31
2022/01/27 07:55:42;;;;;;;7.78;3.90;;;;;;;;;;4996995;28;20030;-33
2022/01/27 07:58:07;;;;;;;6.50;3.80;;;;;;;;;;5002344;28;20034;-37
2022/01/27 08:00:33;;;;;;;5.13;3.80;;;;;;;;;;5006283;28;20032;-37
2022/01/27 08:02:58;;;;;;;7.00;4.03;;;;;;;;;;5006609;28;20503;-33
2022/01/27 08:05:24;;;;;;;7.32;3.88;;;;;;;;;;5005957;28;20483;-29
2022/01/27 08:07:49;;;;;;;7.25;3.67;;;;;;;;;;5004923;28;20041;-36
2022/01/27 08:10:15;;;;;;;6.50;4.30;;;;;;;;;;5005982;28;20037;-36
2022/01/27 08:12:43;;;;;;;8.60;4.40;;;;;;;;;;5006241;28;20034;-34
2022/01/27 08:15:11;;;;;;;11.57;5.60;;;;;;;;;;5005289;28;20034;-36
2022/01/27 08:17:37;;;;;;;9.98;5.50;;;;;;;;;;4995660;28;20041;-34
2022/01/27 08:20:03;;;;;;;9.93;5.20;;;;;;;;;;5005889;28;20026;-31
2022/01/27 08:22:28;;;;;;;11.40;5.28;;;;;;;;;;5005825;28;20045;-36
2022/01/27 08:24:54;;;;;;;9.40;4.45;;;;;;;;;;5004865;28;20129;-36
2022/01/27 08:27:25;;;;;;;10.82;4.97;;;;;;;;;;5003561;28;20033;-35
2022/01/27 08:29:55;;;;;;;9.10;5.00;;;;;;;;;;5003661;28;20047;-33
2022/01/27 08:32:49;;;;;;;9.82;4.30;;;;;;;;;;5004364;28;20049;-36
2022/01/27 08:35:17;;;;;;;9.75;4.43;;;;;;;;;;5002650;28;20046;-32
2022/01/27 08:37:43;;;;;;;10.18;4.22;;;;;;;;;;5005216;28;20100;-35
2022/01/27 08:40:11;;;;;;;11.65;4.00;;;;;;;;;;5004929;28;20480;-37
2022/01/27 08:42:40;;;;;;;8.98;4.40;;;;;;;;;;5005424;28;20672;-32
2022/01/27 08:45:10;;;;;;;8.57;4.25;;;;;;;;;;5005088;28;20120;-31
2022/01/27 08:47:35;;;;;;;9.13;4.65;;;;;;;;;;5003191;28;20762;-32
2022/01/27 08:50:01;;;;;;;10.23;4.53;;;;;;;;;;5004952;28;20041;-37
2022/01/27 08:52:27;;;;;;;11.35;4.25;;;;;;;;;;5005301;28;20037;-33
2022/01/27 08:54:52;;;;;;;8.30;3.72;;;;;;;;;;5004167;28;20038;-32
2022/01/27 08:57:18;;;;;;;12.38;4.47;;;;;;;;;;5004344;28;20041;-36
2022/01/27 08:59:43;;;;;;;6.90;3.78;;;;;;;;;;5004885;28;20053;-34
2022/01/27 09:02:09;;;;;;;5.18;3.78;;;;;;;;;;5003443;28;20022;-33
2022/01/27 09:04:34;;;;;;;5.82;3.60;;;;;;;;;;5004943;28;20048;-32
2022/01/27 09:07:00;;;;;;;6.60;3.65;;;;;;;;;;5005045;28;20037;-31
2022/01/27 09:09:25;;;;;;;8.50;3.35;;;;;;;;;;5004751;28;20060;-32
2022/01/27 09:11:51;;;;;;;7.65;3.70;;;;;;;;;;5003931;28;20034;-38
2022/01/27 09:14:17;;;;;;;6.90;3.25;;;;;;;;;;5004336;28;20041;-35
2022/01/27 09:16:43;;;;;;;4.60;3.40;;;;;;;;;;5007900;28;20036;-32
2022/01/27 09:19:08;;;;;;;9.25;3.70;;;;;;;;;;5004991;28;20061;-31
2022/01/27 09:21:44;;;;;;;6.28;3.67;;;;;;;;;;5005077;28;20695;-37
2022/01/27 09:24:14;;;;;;;6.07;3.53;;;;;;;;;;5004592;28;20022;-33
2022/01/27 09:29:13;;;;;;;10.32;3.30;;;;;;;;;;5003648;28;20932;-36
2022/01/27 09:31:38;;;;;;;4.93;3.30;;;;;;;;;;5003086;28;20034;-34
2022/01/27 09:34:04;;;;;;;9.73;4.07;;;;;;;;;;5005012;28;20053;-38
2022/01/27 09:36:29;;;;;;;5.45;3.63;;;;;;;;;;4989743;28;20038;-38
2022/01/27 09:38:55;;;;;;;5.38;3.35;;;;;;;;;;4985276;28;20031;-37
2022/01/27 09:41:21;;;;;;;5.28;2.97;;;;;;;;;;4988180;28;20049;-38
2022/01/27 09:43:48;;;;;;;7.82;3.08;;;;;;;;;;5002124;28;20246;-37
2022/01/27 09:46:16;;;;;;;4.65;3.42;;;;;;;;;;5004537;28;20488;-38
2022/01/27 09:48:45;;;;;;;10.38;3.60;;;;;;;;;;5004516;28;20424;-35
2022/01/27 09:53:48;;;;;;;5.55;3.50;;;;;;;;;;5002764;28;20063;-37
2022/01/27 09:56:14;;;;;;;7.15;3.08;;;;;;;;;;5004173;28;20026;-35
2022/01/27 09:58:39;;;;;;;6.20;3.25;;;;;;;;;;4999279;28;20038;-37
2022/01/27 10:01:05;;;;;;;4.57;3.00;;;;;;;;;;5000158;28;20108;-37
2022/01/27 10:03:31;;;;;;;5.65;3.45;;;;;;;;;;5003469;28;20037;-35
2022/01/27 10:06:12;;;;;;;6.22;3.38;;;;;;;;;;5000383;28;20041;-30
2022/01/27 10:08:40;;;;;;;6.38;3.40;;;;;;;;;;5002907;28;20030;-31
2022/01/27 10:11:16;;;;;;;7.55;3.38;;;;;;;;;;5002662;28;20485;-29
2022/01/27 10:13:43;;;;;;;10.65;3.60;;;;;;;;;;4997853;28;20124;-35
2022/01/27 10:16:29;;;;;;;7.20;3.80;;;;;;;;;;5004006;28;20118;-38
2022/01/27 10:19:07;;;;;;;8.23;3.35;;;;;;;;;;4999313;28;20424;-36
2022/01/27 10:21:33;;;;;;;5.78;3.08;;;;;;;;;;4999048;28;20121;-33
2022/01/27 10:24:27;;;;;;;7.00;3.30;;;;;;;;;;5002460;28;20548;-34
2022/01/27 10:32:38;;;;;;;6.18;3.33;;;;;;;;;;4983524;28;20026;-34
2022/01/27 10:35:04;;;;;;;6.25;3.80;;;;;;;;;;4987673;28;20634;-35
2022/01/27 10:37:52;;;;;;;5.72;3.15;;;;;;;;;;5002359;28;20112;-33
2022/01/27 10:40:29;;;;;;;4.65;3.35;;;;;;;;;;5003167;28;20036;-36
2022/01/27 10:43:02;;;;;;;7.45;3.90;;;;;;;;;;5008925;28;20065;-37
2022/01/27 10:45:28;;;;;;;7.60;3.40;;;;;;;;;;5008726;28;20045;-38
2022/01/27 10:48:06;;;;;;;4.68;3.40;;;;;;;;;;5003108;28;20723;-37
2022/01/27 10:50:47;;;;;;;6.10;3.50;;;;;;;;;;5002845;28;20033;-31
2022/01/27 10:53:13;;;;;;;4.85;3.75;;;;;;;;;;5003560;28;20038;-34
2022/01/27 10:55:38;;;;;;;4.35;3.30;;;;;;;;;;5001438;28;20184;-39
2022/01/27 10:58:23;;;;;;;7.30;3.70;;;;;;;;;;5002546;28;20030;-33
2022/01/27 11:00:48;;;;;;;5.70;4.30;;;;;;;;;;5000411;28;20041;-35
2022/01/27 11:03:15;;;;;;;5.45;3.65;;;;;;;;;;5000119;28;20030;-38
2022/01/27 11:05:45;;;;;;;4.95;3.67;;;;;;;;;;4983727;28;20045;-32
2022/01/27 11:08:10;;;;;;;4.70;3.65;;;;;;;;;;5002552;28;20044;-30
2022/01/27 11:10:35;;;;;;;5.97;3.63;;;;;;;;;;5002690;28;20577;-36
2022/01/27 11:13:01;;;;;;;4.97;4.00;;;;;;;;;;5003067;28;20092;-32
2022/01/27 11:15:27;;;;;;;5.43;3.70;;;;;;;;;;5002280;28;20735;-39
2022/01/27 11:17:54;;;;;;;6.45;3.63;;;;;;;;;;5002948;28;20057;-32
2022/01/27 11:20:32;;;;;;;5.05;3.88;;;;;;;;;;4997196;28;20421;-37
2022/01/27 11:23:11;;;;;;;4.75;3.65;;;;;;;;;;4999938;28;20038;-38
2022/01/27 11:28:03;;;;;;;5.40;3.55;;;;;;;;;;4984587;28;20034;-35
2022/01/27 11:30:54;;;;;;;5.05;3.60;;;;;;;;;;4983043;28;20456;-39
2022/01/27 11:33:31;;;;;;;6.30;3.83;;;;;;;;;;4987939;28;20049;-36
2022/01/27 11:36:19;;;;;;;6.22;4.07;;;;;;;;;;5000618;28;20033;-35
2022/01/27 11:38:45;;;;;;;5.40;3.70;;;;;;;;;;4997137;28;20038;-35
2022/01/27 11:41:47;;;;;;;4.60;3.55;;;;;;;;;;5002382;28;20135;-35
2022/01/27 11:44:19;;;;;;;4.63;3.38;;;;;;;;;;5002008;28;20034;-31
2022/01/27 11:47:13;;;;;;;6.03;3.72;;;;;;;;;;4996440;28;20037;-33
2022/01/27 11:49:53;;;;;;;4.53;3.63;;;;;;;;;;4995126;28;20033;-35
2022/01/27 11:52:20;;;;;;;4.55;3.60;;;;;;;;;;5001969;28;20385;-37
2022/01/27 11:54:45;;;;;;;5.15;3.95;;;;;;;;;;4999295;28;20050;-36
2022/01/27 11:57:39;;;;;;;6.57;3.40;;;;;;;;;;4999970;28;20025;-34
2022/01/27 12:00:12;;;;;;;6.05;4.57;;;;;;;;;;4999243;28;20041;-35
2022/01/27 12:02:56;;;;;;;9.52;4.88;;;;;;;;;;5002335;28;20362;-30
2022/01/27 12:05:23;;;;;;;8.27;4.57;;;;;;;;;;5000954;28;20050;-36
2022/01/27 12:08:07;;;;;;;6.13;4.60;;;;;;;;;;4996292;28;20055;-30
2022/01/27 12:10:55;;;;;;;6.57;4.65;;;;;;;;;;4999736;28;20037;-32
2022/01/27 12:13:36;;;;;;;7.88;5.07;;;;;;;;;;5002225;28;20033;-35
2022/01/27 12:16:23;;;;;;;10.18;5.13;;;;;;;;;;5001304;28;20034;-33
2022/01/27 12:19:02;;;;;;;9.30;5.22;;;;;;;;;;5000463;28;20033;-33
2022/01/27 12:21:31;;;;;;;9.65;5.28;;;;;;;;;;4998565;28;20037;-36
2022/01/27 12:24:16;;;;;;;11.45;5.05;;;;;;;;;;4996849;28;20043;-35
2022/01/27 12:26:59;;;;;;;8.02;5.55;;;;;;;;;;4994969;28;20038;-35
2022/01/27 12:29:26;;;;;;;;;;;;;;;;;;4995392;28;20068;-35
2022/01/27 12:31:52;;;;;;;6.50;4.95;;;;;;;;;;4994659;28;19918;-33
2022/01/27 12:34:17;;;;;;;6.43;4.70;;;;;;;;;;5001083;28;20096;-35
2022/01/27 12:37:18;;;;;;;7.40;5.47;;;;;;;;;;4992399;28;20026;-33
2022/01/27 12:39:54;;;;;;;5.80;4.28;;;;;;;;;;4977993;28;20041;-35
2022/01/27 12:42:20;;;;;;;6.22;4.97;;;;;;;;;;4991726;28;20113;-35
2022/01/27 12:44:54;;;;;;;13.52;4.45;;;;;;;;;;4995997;28;20204;-33
2022/01/27 12:47:20;;;;;;;5.25;4.63;;;;;;;;;;4997350;28;20033;-32
2022/01/27 12:49:50;;;;;;;6.38;4.60;;;;;;;;;;4999616;28;20045;-33
2022/01/27 12:52:26;;;;;;;5.88;4.60;;;;;;;;;;5005575;28;20108;-35
2022/01/27 12:54:52;;;;;;;5.95;4.68;;;;;;;;;;5005262;28;20041;-32
2022/01/27 12:57:25;;;;;;;5.38;4.40;;;;;;;;;;5005396;28;20030;-33
2022/01/27 12:59:52;;;;;;;6.30;4.65;;;;;;;;;;5005263;28;20752;-32
2022/01/27 13:02:18;;;;;;;6.00;4.78;;;;;;;;;;4996972;28;20041;-32
2022/01/27 13:04:44;;;;;;;5.93;4.68;;;;;;;;;;5007461;28;20034;-35
2022/01/27 13:07:09;;;;;;;6.47;4.70;;;;;;;;;;4999925;28;20037;-34
2022/01/27 13:09:35;;;;;;;8.02;4.47;;;;;;;;;;5004920;28;20484;-34
2022/01/27 13:12:20;;;;;;;5.85;4.38;;;;;;;;;;5002925;28;20056;-35
2022/01/27 13:15:06;;;;;;;7.88;4.53;;;;;;;;;;5004318;28;20401;-36
2022/01/27 13:17:38;;;;;;;7.00;4.55;;;;;;;;;;5005163;28;20053;-36
2022/01/27 13:20:37;;;;;;;5.63;4.47;;;;;;;;;;5005163;28;20030;-32
2022/01/27 13:23:12;;;;;;;6.13;4.85;;;;;;;;;;5004841;28;20625;-32
2022/01/27 13:25:49;;;;;;;5.90;4.53;;;;;;;;;;5004909;28;20026;-33
2022/01/27 13:28:25;;;;;;;6.07;4.72;;;;;;;;;;4985451;28;20030;-37
2022/01/27 13:30:55;;;;;;;6.90;4.80;;;;;;;;;;4984923;28;20397;-35
2022/01/27 13:33:22;;;;;;;6.28;4.32;;;;;;;;;;4983367;28;20163;-31
2022/01/27 13:35:49;;;;;;;7.53;4.53;;;;;;;;;;4998211;28;20157;-33
2022/01/27 13:38:28;;;;;;;6.90;4.70;;;;;;;;;;5004992;28;20068;-38
2022/01/27 13:41:16;;;;;;;4.88;4.35;;;;;;;;;;5004464;28;20022;-35
2022/01/27 13:43:43;;;;;;;5.53;4.10;;;;;;;;;;5004579;28;20042;-34
2022/01/27 13:46:10;;;;;;;4.82;3.90;;;;;;;;;;5003977;28;20574;-34
2022/01/27 13:48:43;;;;;;;8.02;4.10;;;;;;;;;;4992087;28;21045;-33
2022/01/27 13:51:19;;;;;;;4.40;3.85;;;;;;;;;;5004821;28;20403;-34
2022/01/27 13:54:05;;;;;;;5.03;4.05;;;;;;;;;;5004233;28;20034;-36
2022/01/27 13:56:41;;;;;;;4.57;3.90;;;;;;;;;;5003491;28;20045;-36
2022/01/27 13:59:16;;;;;;;9.45;3.97;;;;;;;;;;5004041;28;20805;-35
2022/01/27 14:01:41;;;;;;;10.43;4.43;;;;;;;;;;5001737;28;20103;-33
2022/01/27 14:04:07;;;;;;;10.93;4.78;;;;;;;;;;5001960;28;20789;-30
2022/01/27 14:06:53;;;;;;;9.07;3.85;;;;;;;;;;5003190;28;20033;-35
2022/01/27 14:09:23;;;;;;;4.97;4.07;;;;;;;;;;5001973;28;20521;-31
2022/01/27 14:11:56;;;;;;;5.60;4.13;;;;;;;;;;5003448;28;20426;-37
2022/01/27 14:14:46;;;;;;;5.82;4.60;;;;;;;;;;5002918;28;20224;-30
2022/01/27 14:17:21;;;;;;;4.57;3.90;;;;;;;;;;5002751;28;20080;-28
2022/01/27 14:19:47;;;;;;;7.38;4.35;;;;;;;;;;5003482;28;20029;-29
2022/01/27 14:22:15;;;;;;;8.45;4.45;;;;;;;;;;5002970;28;20076;-35
2022/01/27 14:25:03;;;;;;;5.43;4.60;;;;;;;;;;5001572;28;20025;-34
2022/01/27 14:27:44;;;;;;;5.13;4.18;;;;;;;;;;5003360;28;20034;-37
2022/01/27 14:30:14;;;;;;;5.82;4.68;;;;;;;;;;5003222;28;20091;-37
2022/01/27 14:32:43;;;;;;;6.43;4.90;;;;;;;;;;4991648;28;20033;-36
2022/01/27 14:35:10;;;;;;;5.00;4.32;;;;;;;;;;4994192;28;20039;-37
2022/01/27 14:37:39;;;;;;;6.32;4.18;;;;;;;;;;4983403;28;20085;-39
2022/01/27 14:40:06;;;;;;;7.70;4.63;;;;;;;;;;4983906;28;20042;-34
2022/01/27 14:42:33;;;;;;;9.57;5.20;;;;;;;;;;4991717;28;20034;-33
2022/01/27 14:45:00;;;;;;;5.72;4.82;;;;;;;;;;5002865;28;20034;-32
2022/01/27 14:47:25;;;;;;;6.15;4.68;;;;;;;;;;5002954;28;20026;-35
2022/01/27 14:49:52;;;;;;;6.15;4.97;;;;;;;;;;5002890;28;20365;-37
2022/01/27 14:52:22;;;;;;;8.18;5.18;;;;;;;;;;5000009;28;20185;-36
2022/01/27 14:54:48;;;;;;;7.57;5.60;;;;;;;;;;4995892;28;20036;-33
2022/01/27 14:57:13;;;;;;;9.23;5.80;;;;;;;;;;4999041;28;20030;-35
2022/01/27 14:59:40;;;;;;;6.15;5.45;;;;;;;;;;5003173;28;20508;-32
2022/01/27 15:02:06;;;;;;;6.82;5.85;;;;;;;;;;5002995;28;20037;-37
2022/01/27 15:04:34;;;;;;;7.68;5.68;;;;;;;;;;5002359;28;20400;-33
2022/01/27 15:07:01;;;;;;;7.45;4.90;;;;;;;;;;5002775;28;20034;-29
2022/01/27 15:09:26;;;;;;;7.57;5.95;;;;;;;;;;5003030;28;20109;-33
2022/01/27 15:11:51;;;;;;;6.57;5.40;;;;;;;;;;5002451;28;20025;-36
2022/01/27 15:19:46;;;;;;;7.10;6.00;;;;;;;;;;5002192;28;20104;-38
2022/01/27 15:22:12;;;;;;;7.53;5.78;;;;;;;;;;4997880;28;20060;-35
2022/01/27 15:24:39;;;;;;;7.07;6.05;;;;;;;;;;5000859;28;20026;-34
2022/01/27 15:27:05;;;;;;;7.63;5.90;;;;;;;;;;5000739;28;20045;-30
2022/01/27 15:29:32;;;;;;;12.02;5.82;;;;;;;;;;5001324;28;20029;-32
2022/01/27 15:32:00;;;;;;;7.20;6.18;;;;;;;;;;5002647;28;20126;-35
2022/01/27 15:34:26;;;;;;;9.65;6.35;;;;;;;;;;4997992;28;20400;-31
2022/01/27 15:36:53;;;;;;;7.40;5.85;;;;;;;;;;4995541;28;20046;-34
2022/01/27 15:39:18;;;;;;;8.57;6.38;;;;;;;;;;5000415;28;20037;-32
2022/01/27 15:41:48;;;;;;;7.78;5.95;;;;;;;;;;5000426;28;20030;-36
2022/01/27 15:44:13;;;;;;;7.80;5.30;;;;;;;;;;5002377;28;20048;-35
2022/01/27 15:46:39;;;;;;;7.00;5.80;;;;;;;;;;5000339;28;20037;-31